createdAt,value
2017-01-18T00:00:11.052Z,-3.64
2017-01-18T00:01:11.077Z,-3.54
2017-01-18T00:02:11.171Z,-3.51
2017-01-18T00:03:11.136Z,-3.51
2017-01-18T00:04:11.039Z,-3.71
2017-01-18T00:05:11.028Z,-3.5
2017-01-18T00:06:11.049Z,-3.43
2017-01-18T00:07:11.036Z,-3.47
2017-01-18T00:08:11.096Z,-3.39
2017-01-18T00:09:11.147Z,-3.51
2017-01-18T00:10:11.052Z,-3.53
2017-01-18T00:11:11.044Z,-3.43
2017-01-18T00:12:11.048Z,-3.46
2017-01-18T00:13:11.045Z,-3.38
2017-01-18T00:14:11.055Z,-3.33
2017-01-18T00:15:11.026Z,-3.18
2017-01-18T00:16:11.093Z,-3.44
2017-01-18T00:17:11.054Z,-3.31
2017-01-18T00:18:11.060Z,-3.2
2017-01-18T00:19:11.043Z,-3.22
2017-01-18T00:20:11.225Z,-3.1
2017-01-18T00:21:11.051Z,-3.18
2017-01-18T00:22:11.039Z,-3.17
2017-01-18T00:27:28.005Z,-3.17
2017-01-18T00:27:38.000Z,-3.15
2017-01-18T00:28:38.019Z,-3.28
2017-01-18T00:29:38.349Z,-3.14
2017-01-18T00:30:38.029Z,-3.11
2017-01-18T00:31:38.010Z,-3.17
2017-01-18T00:32:38.090Z,-3.17
2017-01-18T00:33:38.052Z,-3.2
2017-01-18T00:34:38.030Z,-3.04
2017-01-18T00:35:38.127Z,-3.04
2017-01-18T00:36:38.045Z,-3.11
2017-01-18T00:37:38.079Z,-3.13
2017-01-18T00:38:38.082Z,-3.15
2017-01-18T00:39:38.053Z,-3.11
2017-01-18T00:40:38.070Z,-3.11
2017-01-18T00:41:38.024Z,-2.97
2017-01-18T00:42:38.012Z,-3.05
2017-01-18T00:43:38.063Z,-3.02
2017-01-18T00:44:38.185Z,-3.13
2017-01-18T00:45:38.028Z,-3
2017-01-18T00:46:38.140Z,-2.9
2017-01-18T00:47:38.024Z,-2.94
2017-01-18T00:48:38.022Z,-2.9
2017-01-18T00:49:38.173Z,-2.86
2017-01-18T00:50:38.108Z,-2.99
2017-01-18T00:51:38.042Z,-2.97
2017-01-18T00:52:38.092Z,-2.89
2017-01-18T00:53:38.010Z,-2.85
2017-01-18T00:54:38.063Z,-2.81
2017-01-18T00:55:38.028Z,-2.72
2017-01-18T00:56:38.015Z,-2.81
2017-01-18T00:57:38.057Z,-2.75
2017-01-18T00:58:38.064Z,-2.76
2017-01-18T00:59:38.020Z,-2.71
2017-01-18T01:00:38.044Z,-2.66
2017-01-18T01:01:38.111Z,-2.66
2017-01-18T01:02:38.044Z,-2.64
2017-01-18T01:03:38.081Z,-2.69
2017-01-18T01:04:38.027Z,-2.71
2017-01-18T01:05:38.337Z,-2.66
2017-01-18T01:06:38.071Z,-2.72
2017-01-18T01:07:38.033Z,-2.71
2017-01-18T01:08:38.043Z,-2.63
2017-01-18T01:09:38.072Z,-2.57
2017-01-18T01:10:38.029Z,-2.56
2017-01-18T01:11:38.051Z,-2.61
2017-01-18T01:12:38.203Z,-2.58
2017-01-18T01:13:38.055Z,-2.56
2017-01-18T01:14:38.033Z,-2.5
2017-01-18T01:15:38.042Z,-2.57
2017-01-18T01:16:38.153Z,-2.51
2017-01-18T01:17:38.041Z,-2.43
2017-01-18T01:18:38.036Z,-2.51
2017-01-18T01:19:38.171Z,-2.5
2017-01-18T01:20:38.038Z,-2.48
2017-01-18T01:21:38.040Z,-2.48
2017-01-18T01:22:38.044Z,-2.57
2017-01-18T01:23:38.097Z,-2.53
2017-01-18T01:24:38.032Z,-2.45
2017-01-18T01:25:38.116Z,-2.51
2017-01-18T01:26:38.056Z,-2.51
2017-01-18T01:27:38.058Z,-2.39
2017-01-18T01:28:38.035Z,-2.38
2017-01-18T01:29:38.051Z,-2.45
2017-01-18T01:30:38.028Z,-2.39
2017-01-18T01:31:38.068Z,-2.38
2017-01-18T01:32:38.083Z,-2.33
2017-01-18T01:33:38.094Z,-2.39
2017-01-18T01:34:38.156Z,-2.5
2017-01-18T01:35:38.076Z,-2.32
2017-01-18T01:36:38.128Z,-2.24
2017-01-18T01:37:38.109Z,-2.36
2017-01-18T01:38:38.054Z,-2.26
2017-01-18T01:39:38.055Z,-2.4
2017-01-18T01:40:38.145Z,-2.4
2017-01-18T01:41:38.046Z,-2.28
2017-01-18T01:42:38.103Z,-2.32
2017-01-18T01:43:38.144Z,-2.21
2017-01-18T01:44:38.276Z,-2.24
2017-01-18T01:45:38.065Z,-2.32
2017-01-18T01:46:38.322Z,-2.21
2017-01-18T01:47:38.094Z,-2.32
2017-01-18T01:48:38.093Z,-2.24
2017-01-18T01:49:38.048Z,-2.18
2017-01-18T01:50:38.074Z,-2.23
2017-01-18T01:51:38.223Z,-2.17
2017-01-18T01:52:38.054Z,-2.18
2017-01-18T01:53:38.335Z,-2.11
2017-01-18T01:54:38.133Z,-2.03
2017-01-18T01:55:38.062Z,-2.05
2017-01-18T01:56:38.081Z,-2.14
2017-01-18T01:57:38.190Z,-2.1
2017-01-18T01:58:38.100Z,-2.11
2017-01-18T01:59:38.100Z,-1.99
2017-01-18T02:00:38.079Z,-2.03
2017-01-18T02:01:38.212Z,-2.1
2017-01-18T02:02:38.072Z,-2.05
2017-01-18T02:03:38.069Z,-2.08
2017-01-18T02:04:38.105Z,-2.21
2017-01-18T02:05:38.162Z,-2.05
2017-01-18T02:06:38.221Z,-1.92
2017-01-18T02:07:38.073Z,-2.13
2017-01-18T02:08:38.103Z,-2
2017-01-18T02:09:38.097Z,-2.13
2017-01-18T02:10:38.147Z,-2.13
2017-01-18T02:11:38.093Z,-2.06
2017-01-18T02:12:38.091Z,-2.06
2017-01-18T02:13:38.169Z,-1.93
2017-01-18T02:14:38.078Z,-2.18
2017-01-18T02:15:38.079Z,-2
2017-01-18T02:16:38.076Z,-2.02
2017-01-18T02:17:38.069Z,-2.08
2017-01-18T02:18:38.058Z,-2.02
2017-01-18T02:19:38.083Z,-2
2017-01-18T02:20:38.221Z,-2.05
2017-01-18T02:21:38.232Z,-1.99
2017-01-18T02:22:38.378Z,-2.05
2017-01-18T02:23:38.063Z,-1.9
2017-01-18T02:24:38.108Z,-2.03
2017-01-18T02:25:38.191Z,-1.99
2017-01-18T02:26:38.187Z,-1.88
2017-01-18T02:27:38.176Z,-1.96
2017-01-18T02:28:38.215Z,-1.92
2017-01-18T02:29:38.102Z,-1.95
2017-01-18T02:30:38.098Z,-1.96
2017-01-18T02:31:38.086Z,-1.84
2017-01-18T02:32:38.067Z,-1.92
2017-01-18T02:33:38.082Z,-1.95
2017-01-18T02:34:38.230Z,-1.81
2017-01-18T02:35:38.110Z,-1.9
2017-01-18T02:36:38.088Z,-1.92
2017-01-18T02:37:38.258Z,-1.88
2017-01-18T02:38:38.210Z,-2
2017-01-18T02:39:38.273Z,-1.96
2017-01-18T02:40:38.192Z,-1.99
2017-01-18T02:41:38.097Z,-1.98
2017-01-18T02:42:38.089Z,-1.96
2017-01-18T02:43:38.125Z,-1.93
2017-01-18T02:44:38.071Z,-1.93
2017-01-18T02:45:38.082Z,-1.93
2017-01-18T02:46:38.115Z,-1.99
2017-01-18T02:47:38.101Z,-2
2017-01-18T02:48:38.262Z,-1.87
2017-01-18T02:49:38.131Z,-1.87
2017-01-18T02:50:38.271Z,-1.95
2017-01-18T02:51:38.107Z,-1.93
2017-01-18T02:52:38.166Z,-1.8
2017-01-18T02:53:38.251Z,-1.95
2017-01-18T02:54:38.095Z,-1.95
2017-01-18T02:55:38.186Z,-1.87
2017-01-18T02:56:38.110Z,-1.84
2017-01-18T02:57:38.222Z,-1.77
2017-01-18T02:58:38.166Z,-1.75
2017-01-18T02:59:38.143Z,-1.9
2017-01-18T03:00:38.116Z,-1.81
2017-01-18T03:01:38.084Z,-1.67
2017-01-18T03:02:38.143Z,-1.82
2017-01-18T03:03:38.107Z,-1.77
2017-01-18T03:04:38.097Z,-1.74
2017-01-18T03:05:38.095Z,-1.8
2017-01-18T03:06:38.135Z,-1.69
2017-01-18T03:07:38.123Z,-1.78
2017-01-18T03:08:38.093Z,-1.67
2017-01-18T03:09:38.082Z,-1.72
2017-01-18T03:10:38.101Z,-1.69
2017-01-18T03:11:38.113Z,-1.64
2017-01-18T03:12:38.101Z,-1.75
2017-01-18T03:13:38.105Z,-1.75
2017-01-18T03:14:38.121Z,-1.69
2017-01-18T03:15:38.113Z,-1.7
2017-01-18T03:16:38.127Z,-1.64
2017-01-18T03:17:38.109Z,-1.63
2017-01-18T03:18:38.095Z,-1.67
2017-01-18T03:19:38.128Z,-1.64
2017-01-18T03:20:38.128Z,-1.7
2017-01-18T03:21:38.111Z,-1.64
2017-01-18T03:22:38.119Z,-1.67
2017-01-18T03:23:38.128Z,-1.62
2017-01-18T03:24:38.119Z,-1.67
2017-01-18T03:25:38.113Z,-1.51
2017-01-18T03:26:38.102Z,-1.64
2017-01-18T03:27:38.106Z,-1.54
2017-01-18T03:28:38.114Z,-1.56
2017-01-18T03:29:38.106Z,-1.46
2017-01-18T03:30:38.106Z,-1.69
2017-01-18T03:31:38.135Z,-1.6
2017-01-18T03:32:38.117Z,-1.49
2017-01-18T03:33:38.112Z,-1.62
2017-01-18T03:34:38.122Z,-1.59
2017-01-18T03:35:38.138Z,-1.64
2017-01-18T03:36:38.112Z,-1.49
2017-01-18T03:37:38.120Z,-1.49
2017-01-18T03:38:38.112Z,-1.53
2017-01-18T03:39:38.134Z,-1.6
2017-01-18T03:40:38.152Z,-1.6
2017-01-18T03:41:38.111Z,-1.45
2017-01-18T03:42:38.113Z,-1.53
2017-01-18T03:43:38.130Z,-1.6
2017-01-18T03:44:38.123Z,-1.59
2017-01-18T03:45:38.109Z,-1.51
2017-01-18T03:46:38.128Z,-1.48
2017-01-18T03:47:38.105Z,-1.45
2017-01-18T03:48:38.140Z,-1.57
2017-01-18T03:49:38.130Z,-1.54
2017-01-18T03:50:38.115Z,-1.36
2017-01-18T03:51:38.139Z,-1.57
2017-01-18T03:52:38.126Z,-1.53
2017-01-18T03:53:38.124Z,-1.53
2017-01-18T03:54:38.123Z,-1.43
2017-01-18T03:55:38.123Z,-1.42
2017-01-18T03:56:38.118Z,-1.43
2017-01-18T03:57:38.112Z,-1.42
2017-01-18T03:58:38.126Z,-1.42
2017-01-18T03:59:38.142Z,-1.54
2017-01-18T04:00:38.129Z,-1.45
2017-01-18T04:01:38.142Z,-1.57
2017-01-18T04:02:38.128Z,-1.48
2017-01-18T04:03:38.134Z,-1.66
2017-01-18T04:04:38.124Z,-1.46
2017-01-18T04:05:38.123Z,-1.49
2017-01-18T04:06:38.151Z,-1.49
2017-01-18T04:07:38.150Z,-1.62
2017-01-18T04:08:38.151Z,-1.51
2017-01-18T04:09:38.121Z,-1.46
2017-01-18T04:10:38.123Z,-1.6
2017-01-18T04:11:38.131Z,-1.42
2017-01-18T04:12:38.120Z,-1.57
2017-01-18T04:13:38.125Z,-1.57
2017-01-18T04:14:38.160Z,-1.46
2017-01-18T04:15:38.131Z,-1.45
2017-01-18T04:16:38.152Z,-1.46
2017-01-18T04:17:38.155Z,-1.6
2017-01-18T04:18:38.117Z,-1.59
2017-01-18T04:19:38.139Z,-1.57
2017-01-18T04:20:38.133Z,-1.51
2017-01-18T04:21:38.132Z,-1.54
2017-01-18T04:22:38.163Z,-1.72
2017-01-18T04:23:38.155Z,-1.62
2017-01-18T04:24:38.133Z,-1.56
2017-01-18T04:25:38.167Z,-1.69
2017-01-18T04:26:38.136Z,-1.74
2017-01-18T04:27:38.146Z,-1.64
2017-01-18T04:28:38.146Z,-1.9
2017-01-18T04:29:38.136Z,-1.81
2017-01-18T04:30:38.148Z,-1.7
2017-01-18T04:31:38.140Z,-1.72
2017-01-18T04:32:38.150Z,-1.66
2017-01-18T04:33:38.150Z,-1.77
2017-01-18T04:34:38.143Z,-1.74
2017-01-18T04:35:38.143Z,-1.78
2017-01-18T04:36:38.185Z,-1.67
2017-01-18T04:37:38.155Z,-1.77
2017-01-18T04:38:38.148Z,-1.84
2017-01-18T04:39:38.135Z,-1.7
2017-01-18T04:40:38.148Z,-1.77
2017-01-18T04:41:38.159Z,-1.75
2017-01-18T04:42:38.162Z,-1.75
2017-01-18T04:43:38.151Z,-1.81
2017-01-18T04:44:38.156Z,-1.62
2017-01-18T04:45:38.156Z,-1.75
2017-01-18T04:46:38.183Z,-1.78
2017-01-18T04:47:38.175Z,-1.7
2017-01-18T04:48:38.161Z,-1.77
2017-01-18T04:49:38.149Z,-1.8
2017-01-18T04:50:38.181Z,-1.84
2017-01-18T04:51:38.168Z,-1.72
2017-01-18T04:52:38.175Z,-1.78
2017-01-18T04:53:38.152Z,-1.75
2017-01-18T04:54:38.170Z,-1.84
2017-01-18T04:55:38.160Z,-1.9
2017-01-18T04:56:38.166Z,-1.8
2017-01-18T04:57:38.176Z,-1.84
2017-01-18T04:58:38.148Z,-2.03
2017-01-18T04:59:38.162Z,-1.87
2017-01-18T05:00:38.181Z,-1.87
2017-01-18T05:01:38.166Z,-1.87
2017-01-18T05:02:38.173Z,-1.87
2017-01-18T05:03:38.180Z,-1.8
2017-01-18T05:04:38.190Z,-1.81
2017-01-18T05:05:38.169Z,-1.92
2017-01-18T05:06:38.176Z,-1.81
2017-01-18T05:07:38.205Z,-1.87
2017-01-18T05:08:38.158Z,-1.82
2017-01-18T05:09:38.252Z,-1.72
2017-01-18T05:10:38.179Z,-1.82
2017-01-18T05:11:38.177Z,-1.82
2017-01-18T05:12:38.185Z,-1.85
2017-01-18T05:13:38.219Z,-1.74
2017-01-18T05:14:38.166Z,-1.8
2017-01-18T05:15:38.172Z,-1.75
2017-01-18T05:16:38.203Z,-1.9
2017-01-18T05:17:38.193Z,-1.75
2017-01-18T05:18:38.212Z,-1.69
2017-01-18T05:19:38.185Z,-1.88
2017-01-18T05:20:38.186Z,-1.75
2017-01-18T05:21:38.185Z,-1.74
2017-01-18T05:22:38.220Z,-1.69
2017-01-18T05:23:38.186Z,-1.82
2017-01-18T05:24:38.191Z,-1.77
2017-01-18T05:25:38.189Z,-1.62
2017-01-18T05:26:38.205Z,-1.77
2017-01-18T05:27:38.175Z,-1.72
2017-01-18T05:28:38.195Z,-1.69
2017-01-18T05:29:38.223Z,-1.66
2017-01-18T05:30:38.212Z,-1.7
2017-01-18T05:31:38.201Z,-1.67
2017-01-18T05:32:38.189Z,-1.7
2017-01-18T05:33:38.180Z,-1.7
2017-01-18T05:34:38.193Z,-1.67
2017-01-18T05:35:38.199Z,-1.67
2017-01-18T05:36:38.184Z,-1.8
2017-01-18T05:37:38.198Z,-1.88
2017-01-18T05:38:38.189Z,-1.78
2017-01-18T05:39:38.170Z,-1.85
2017-01-18T05:40:38.183Z,-1.84
2017-01-18T05:41:38.191Z,-1.74
2017-01-18T05:42:38.190Z,-1.81
2017-01-18T05:43:38.198Z,-1.8
2017-01-18T05:44:38.189Z,-1.84
2017-01-18T05:45:38.210Z,-1.8
2017-01-18T05:46:38.241Z,-1.9
2017-01-18T05:47:38.216Z,-1.9
2017-01-18T05:48:38.179Z,-1.8
2017-01-18T05:49:38.198Z,-1.82
2017-01-18T05:50:38.190Z,-1.88
2017-01-18T05:51:38.197Z,-1.87
2017-01-18T05:52:38.184Z,-1.93
2017-01-18T05:53:38.200Z,-1.95
2017-01-18T05:54:38.213Z,-2.02
2017-01-18T05:55:38.192Z,-1.9
2017-01-18T05:56:38.201Z,-2.05
2017-01-18T05:57:38.216Z,-1.99
2017-01-18T05:58:38.309Z,-2.02
2017-01-18T05:59:38.230Z,-2
2017-01-18T06:00:38.206Z,-1.99
2017-01-18T06:01:38.194Z,-2.03
2017-01-18T06:02:38.220Z,-2.05
2017-01-18T06:03:38.229Z,-1.95
2017-01-18T06:04:38.190Z,-2.1
2017-01-18T06:05:38.211Z,-2.16
2017-01-18T06:06:38.204Z,-2.1
2017-01-18T06:07:38.216Z,-2.14
2017-01-18T06:08:38.211Z,-2.1
2017-01-18T06:09:38.195Z,-2.02
2017-01-18T06:10:38.215Z,-2.29
2017-01-18T06:11:38.213Z,-2.33
2017-01-18T06:12:38.200Z,-2.17
2017-01-18T06:13:38.210Z,-2.14
2017-01-18T06:14:38.214Z,-2.14
2017-01-18T06:15:38.320Z,-2.29
2017-01-18T06:16:38.253Z,-2.23
2017-01-18T06:17:38.386Z,-2.32
2017-01-18T06:18:38.258Z,-2.32
2017-01-18T06:19:38.207Z,-2.32
2017-01-18T06:20:38.234Z,-2.26
2017-01-18T06:21:38.209Z,-2.36
2017-01-18T06:22:38.217Z,-2.42
2017-01-18T06:23:38.214Z,-2.33
2017-01-18T06:24:38.205Z,-2.35
2017-01-18T06:25:38.219Z,-2.36
2017-01-18T06:26:38.221Z,-2.42
2017-01-18T06:27:38.228Z,-2.47
2017-01-18T06:28:38.217Z,-2.53
2017-01-18T06:29:38.227Z,-2.45
2017-01-18T06:30:38.206Z,-2.51
2017-01-18T06:31:38.212Z,-2.47
2017-01-18T06:32:38.220Z,-2.42
2017-01-18T06:33:38.206Z,-2.61
2017-01-18T06:34:38.271Z,-2.39
2017-01-18T06:35:38.225Z,-2.51
2017-01-18T06:36:38.222Z,-2.63
2017-01-18T06:37:38.224Z,-2.43
2017-01-18T06:38:38.232Z,-2.48
2017-01-18T06:39:38.229Z,-2.64
2017-01-18T06:40:38.258Z,-2.51
2017-01-18T06:41:38.246Z,-2.66
2017-01-18T06:42:38.234Z,-2.58
2017-01-18T06:43:38.215Z,-2.6
2017-01-18T06:44:38.216Z,-2.57
2017-01-18T06:45:38.234Z,-2.6
2017-01-18T06:46:38.235Z,-2.56
2017-01-18T06:47:38.219Z,-2.72
2017-01-18T06:48:38.229Z,-2.57
2017-01-18T06:49:38.303Z,-2.75
2017-01-18T06:50:38.226Z,-2.64
2017-01-18T06:51:38.256Z,-2.58
2017-01-18T06:52:38.349Z,-2.57
2017-01-18T06:53:38.358Z,-2.63
2017-01-18T06:54:38.392Z,-2.64
2017-01-18T06:55:38.323Z,-2.71
2017-01-18T06:56:38.284Z,-2.72
2017-01-18T06:57:38.497Z,-2.79
2017-01-18T06:58:38.391Z,-2.74
2017-01-18T06:59:38.230Z,-2.68
2017-01-18T07:00:38.259Z,-2.66
2017-01-18T07:01:38.294Z,-2.75
2017-01-18T07:02:38.242Z,-2.93
2017-01-18T07:03:38.241Z,-2.82
2017-01-18T07:04:38.237Z,-2.71
2017-01-18T07:05:38.228Z,-2.61
2017-01-18T07:06:38.240Z,-2.76
2017-01-18T07:07:38.242Z,-2.72
2017-01-18T07:08:38.376Z,-2.79
2017-01-18T07:09:38.254Z,-2.71
2017-01-18T07:10:38.273Z,-2.81
2017-01-18T07:11:38.254Z,-2.76
2017-01-18T07:12:38.234Z,-2.78
2017-01-18T07:13:38.291Z,-2.87
2017-01-18T07:14:38.270Z,-2.92
2017-01-18T07:15:38.274Z,-2.68
2017-01-18T07:16:38.262Z,-2.76
2017-01-18T07:17:38.270Z,-2.76
2017-01-18T07:18:38.337Z,-2.82
2017-01-18T07:19:38.295Z,-2.68
2017-01-18T07:20:38.261Z,-2.71
2017-01-18T07:21:38.428Z,-2.68
2017-01-18T07:22:38.303Z,-2.75
2017-01-18T07:23:38.406Z,-2.71
2017-01-18T07:24:38.278Z,-2.69
2017-01-18T07:25:38.374Z,-2.75
2017-01-18T07:26:38.339Z,-2.74
2017-01-18T07:27:38.432Z,-2.76
2017-01-18T07:28:38.268Z,-2.64
2017-01-18T07:29:38.413Z,-2.63
2017-01-18T07:30:38.470Z,-2.74
2017-01-18T07:31:38.266Z,-2.69
2017-01-18T07:32:38.277Z,-2.79
2017-01-18T07:33:38.266Z,-2.75
2017-01-18T07:34:38.276Z,-2.75
2017-01-18T07:35:38.267Z,-2.76
2017-01-18T07:36:38.259Z,-2.68
2017-01-18T07:37:38.268Z,-2.66
2017-01-18T07:38:38.277Z,-2.76
2017-01-18T07:39:38.277Z,-2.64
2017-01-18T07:40:38.320Z,-2.66
2017-01-18T07:41:38.345Z,-2.69
2017-01-18T07:42:38.309Z,-2.66
2017-01-18T07:43:38.362Z,-2.74
2017-01-18T07:44:38.295Z,-2.66
2017-01-18T07:45:38.292Z,-2.54
2017-01-18T07:46:38.276Z,-2.56
2017-01-18T07:47:38.313Z,-2.57
2017-01-18T07:48:38.278Z,-2.51
2017-01-18T07:49:38.267Z,-2.66
2017-01-18T07:50:38.274Z,-2.53
2017-01-18T07:51:38.323Z,-2.57
2017-01-18T07:52:38.343Z,-2.54
2017-01-18T07:53:38.284Z,-2.56
2017-01-18T07:54:38.264Z,-2.63
2017-01-18T07:55:38.260Z,-2.51
2017-01-18T07:56:38.580Z,-2.4
2017-01-18T07:57:38.271Z,-2.53
2017-01-18T07:58:38.303Z,-2.39
2017-01-18T07:59:38.279Z,-2.48
2017-01-18T08:00:38.287Z,-2.45
2017-01-18T08:01:38.337Z,-2.54
2017-01-18T08:02:38.284Z,-2.42
2017-01-18T08:03:38.411Z,-2.43
2017-01-18T08:04:38.355Z,-2.43
2017-01-18T08:05:38.279Z,-2.4
2017-01-18T08:06:38.318Z,-2.4
2017-01-18T08:07:38.304Z,-2.32
2017-01-18T08:08:38.303Z,-2.36
2017-01-18T08:09:38.278Z,-2.18
2017-01-18T08:10:38.293Z,-2.33
2017-01-18T08:11:38.307Z,-2.32
2017-01-18T08:12:38.300Z,-2.16
2017-01-18T08:13:38.292Z,-2.14
2017-01-18T08:14:38.322Z,-2.11
2017-01-18T08:15:38.280Z,-2.17
2017-01-18T08:16:38.308Z,-2.14
2017-01-18T08:17:38.422Z,-2.23
2017-01-18T08:18:38.288Z,-2.08
2017-01-18T08:19:38.305Z,-2.2
2017-01-18T08:20:38.356Z,-2.16
2017-01-18T08:21:38.368Z,-2.18
2017-01-18T08:22:38.321Z,-2.14
2017-01-18T08:23:38.331Z,-2.14
2017-01-18T08:24:38.278Z,-2.11
2017-01-18T08:25:38.283Z,-2.26
2017-01-18T08:26:38.300Z,-2.1
2017-01-18T08:27:38.325Z,-2.14
2017-01-18T08:28:38.288Z,-2.1
2017-01-18T08:29:38.329Z,-2.06
2017-01-18T08:30:38.320Z,-2.08
2017-01-18T08:31:38.456Z,-2.08
2017-01-18T08:32:38.361Z,-2.02
2017-01-18T08:33:38.419Z,-2.08
2017-01-18T08:34:38.334Z,-2.03
2017-01-18T08:35:38.357Z,-1.9
2017-01-18T08:36:38.330Z,-1.98
2017-01-18T08:37:38.286Z,-1.93
2017-01-18T08:38:38.295Z,-1.92
2017-01-18T08:39:38.357Z,-1.78
2017-01-18T08:40:38.281Z,-1.81
2017-01-18T08:41:38.291Z,-1.93
2017-01-18T08:42:38.302Z,-1.9
2017-01-18T08:43:38.295Z,-1.88
2017-01-18T08:44:38.454Z,-1.85
2017-01-18T08:45:38.303Z,-1.67
2017-01-18T08:46:38.310Z,-1.77
2017-01-18T08:47:38.308Z,-1.72
2017-01-18T08:48:38.290Z,-1.7
2017-01-18T08:49:38.311Z,-1.77
2017-01-18T08:50:38.450Z,-1.77
2017-01-18T08:51:38.340Z,-1.75
2017-01-18T08:52:38.360Z,-1.57
2017-01-18T08:53:38.350Z,-1.62
2017-01-18T08:54:38.354Z,-1.74
2017-01-18T08:55:38.317Z,-1.59
2017-01-18T08:56:38.305Z,-1.59
2017-01-18T08:57:38.359Z,-1.53
2017-01-18T08:58:38.327Z,-1.63
2017-01-18T08:59:38.333Z,-1.62
2017-01-18T09:00:38.301Z,-1.49
2017-01-18T09:01:38.317Z,-1.46
2017-01-18T09:02:38.307Z,-1.56
2017-01-18T09:03:38.336Z,-1.42
2017-01-18T09:04:38.328Z,-1.43
2017-01-18T09:05:38.346Z,-1.56
2017-01-18T09:06:38.318Z,-1.53
2017-01-18T09:07:38.312Z,-1.51
2017-01-18T09:08:38.334Z,-1.56
2017-01-18T09:09:38.304Z,-1.64
2017-01-18T09:10:38.303Z,-1.53
2017-01-18T09:11:38.324Z,-1.46
2017-01-18T09:12:38.311Z,-1.48
2017-01-18T09:13:38.340Z,-1.56
2017-01-18T09:14:38.322Z,-1.57
2017-01-18T09:15:38.316Z,-1.45
2017-01-18T09:16:38.316Z,-1.51
2017-01-18T09:17:38.325Z,-1.49
2017-01-18T09:18:38.330Z,-1.33
2017-01-18T09:19:38.350Z,-1.38
2017-01-18T09:20:38.330Z,-1.33
2017-01-18T09:21:38.380Z,-1.42
2017-01-18T09:22:38.322Z,-1.28
2017-01-18T09:23:38.333Z,-1.33
2017-01-18T09:24:38.327Z,-1.45
2017-01-18T09:25:38.327Z,-1.35
2017-01-18T09:26:38.340Z,-1.36
2017-01-18T09:27:38.316Z,-1.35
2017-01-18T09:28:38.343Z,-1.23
2017-01-18T09:29:38.330Z,-1.21
2017-01-18T09:30:38.332Z,-1.12
2017-01-18T09:31:38.327Z,-1.09
2017-01-18T09:32:38.335Z,-1.09
2017-01-18T09:33:38.337Z,-1.07
2017-01-18T09:34:38.363Z,-1.15
2017-01-18T09:35:38.353Z,-0.95
2017-01-18T09:36:38.390Z,-1.05
2017-01-18T09:37:38.342Z,-0.97
2017-01-18T09:38:38.331Z,-0.92
2017-01-18T09:39:38.343Z,-0.97
2017-01-18T09:40:38.355Z,-1.18
2017-01-18T09:41:38.368Z,-1.02
2017-01-18T09:42:38.348Z,-0.99
2017-01-18T09:43:38.367Z,-1.03
2017-01-18T09:44:38.331Z,-1.05
2017-01-18T09:45:38.338Z,-0.91
2017-01-18T09:46:38.354Z,-1.03
2017-01-18T09:47:38.332Z,-0.95
2017-01-18T09:48:38.361Z,-0.94
2017-01-18T09:49:38.389Z,-0.75
2017-01-18T09:50:38.353Z,-0.8
2017-01-18T09:51:38.334Z,-0.83
2017-01-18T09:52:38.335Z,-0.87
2017-01-18T09:53:38.331Z,-0.91
2017-01-18T09:54:38.337Z,-0.94
2017-01-18T09:55:38.325Z,-0.78
2017-01-18T09:56:38.347Z,-0.99
2017-01-18T09:57:38.394Z,-0.81
2017-01-18T09:58:38.353Z,-0.77
2017-01-18T09:59:38.372Z,-0.8
2017-01-18T10:00:38.345Z,-0.63
2017-01-18T10:01:38.358Z,-0.73
2017-01-18T10:02:38.331Z,-0.72
2017-01-18T10:03:38.354Z,-0.78
2017-01-18T10:04:38.334Z,-0.66
2017-01-18T10:05:38.367Z,-0.62
2017-01-18T10:06:38.347Z,-0.51
2017-01-18T10:07:38.363Z,-0.52
2017-01-18T10:08:38.341Z,-0.55
2017-01-18T10:09:38.353Z,-0.57
2017-01-18T10:10:38.366Z,-0.5
2017-01-18T10:11:38.361Z,-0.54
2017-01-18T10:12:38.370Z,-0.59
2017-01-18T10:13:38.347Z,-0.45
2017-01-18T10:14:38.354Z,-0.52
2017-01-18T10:15:38.381Z,-0.42
2017-01-18T10:16:38.336Z,-0.45
2017-01-18T10:17:38.363Z,-0.5
2017-01-18T10:18:38.355Z,-0.31
2017-01-18T10:19:38.359Z,-0.39
2017-01-18T10:20:38.380Z,-0.44
2017-01-18T10:21:38.364Z,-0.44
2017-01-18T10:22:38.366Z,-0.3
2017-01-18T10:23:38.351Z,-0.34
2017-01-18T10:24:38.383Z,-0.29
2017-01-18T10:25:38.379Z,-0.42
2017-01-18T10:26:38.371Z,-0.44
2017-01-18T10:27:38.358Z,-0.3
2017-01-18T10:28:38.374Z,-0.42
2017-01-18T10:29:38.373Z,-0.39
2017-01-18T10:30:38.385Z,-0.44
2017-01-18T10:31:38.371Z,-0.22
2017-01-18T10:32:38.389Z,-0.23
2017-01-18T10:33:38.383Z,-0.24
2017-01-18T10:34:38.400Z,-0.18
2017-01-18T10:35:38.369Z,-0.11
2017-01-18T10:36:38.348Z,-0.22
2017-01-18T10:37:38.367Z,-0.09
2017-01-18T10:38:38.375Z,-0.09
2017-01-18T10:39:38.377Z,-0.08
2017-01-18T10:40:38.391Z,-0.08
2017-01-18T10:41:38.369Z,-0.09
2017-01-18T10:42:38.365Z,-0.05
2017-01-18T10:43:38.403Z,0.09
2017-01-18T10:44:38.385Z,0.16
2017-01-18T10:45:38.403Z,0.1
2017-01-18T10:46:38.384Z,0.2
2017-01-18T10:47:38.407Z,0.18
2017-01-18T10:48:38.398Z,0.25
2017-01-18T10:49:38.375Z,0.24
2017-01-18T10:50:38.418Z,0.33
2017-01-18T10:51:38.480Z,0.24
2017-01-18T10:52:38.396Z,0.25
2017-01-18T10:53:38.403Z,0.12
2017-01-18T10:54:38.390Z,0.21
2017-01-18T10:55:38.371Z,0.06
2017-01-18T10:56:38.387Z,-0.06
2017-01-18T10:57:38.403Z,-0.05
2017-01-18T10:58:38.390Z,-0.23
2017-01-18T10:59:38.385Z,-0.12
2017-01-18T11:00:38.391Z,-0.19
2017-01-18T11:01:38.428Z,-0.16
2017-01-18T11:02:38.401Z,-0.19
2017-01-18T11:03:38.391Z,-0.24
2017-01-18T11:04:38.427Z,-0.39
2017-01-18T11:05:38.383Z,-0.39
2017-01-18T11:06:38.410Z,-0.41
2017-01-18T11:07:38.414Z,-0.22
2017-01-18T11:08:38.399Z,-0.34
2017-01-18T11:09:38.404Z,-0.24
2017-01-18T11:10:38.396Z,-0.24
2017-01-18T11:11:38.435Z,-0.31
2017-01-18T11:12:38.427Z,-0.16
2017-01-18T11:13:38.392Z,-0.11
2017-01-18T11:14:38.451Z,-0.23
2017-01-18T11:15:38.417Z,-0.23
2017-01-18T11:16:38.382Z,-0.23
2017-01-18T11:17:38.424Z,-0.13
2017-01-18T11:18:38.398Z,-0.27
2017-01-18T11:19:38.400Z,-0.19
2017-01-18T11:20:38.402Z,-0.19
2017-01-18T11:21:38.403Z,-0.18
2017-01-18T11:22:38.393Z,-0.15
2017-01-18T11:23:38.411Z,-0.12
2017-01-18T11:24:38.393Z,-0.08
2017-01-18T11:25:38.405Z,-0.08
2017-01-18T11:26:38.392Z,-0.06
2017-01-18T11:27:38.423Z,-0.06
2017-01-18T11:28:38.404Z,-0.18
2017-01-18T11:29:38.422Z,-0.11
2017-01-18T11:30:38.385Z,-0.24
2017-01-18T11:31:38.423Z,-0.12
2017-01-18T11:32:38.411Z,-0.11
2017-01-18T11:33:38.454Z,-0.22
2017-01-18T11:34:38.412Z,-0.16
2017-01-18T11:35:38.417Z,-0.05
2017-01-18T11:36:38.404Z,0.06
2017-01-18T11:37:38.394Z,0.03
2017-01-18T11:38:38.400Z,-0.01
2017-01-18T11:39:38.424Z,0.09
2017-01-18T11:40:38.413Z,0.05
2017-01-18T11:41:38.406Z,-0.05
2017-01-18T11:42:38.423Z,0.05
2017-01-18T11:43:38.414Z,-0.01
2017-01-18T11:44:38.421Z,0.12
2017-01-18T11:45:38.427Z,0.06
2017-01-18T11:46:38.435Z,0.1
2017-01-18T11:47:38.414Z,0.16
2017-01-18T11:48:38.432Z,0.1
2017-01-18T11:49:38.411Z,-0.01
2017-01-18T11:50:38.424Z,0.2
2017-01-18T11:51:38.395Z,0.16
2017-01-18T11:52:38.443Z,0.24
2017-01-18T11:53:38.423Z,0.21
2017-01-18T11:54:38.393Z,0.36
2017-01-18T11:55:38.401Z,0.39
2017-01-18T11:56:38.416Z,0.41
2017-01-18T11:57:38.410Z,0.46
2017-01-18T11:58:38.426Z,0.39
2017-01-18T11:59:38.439Z,0.42
2017-01-18T12:00:38.442Z,0.52
2017-01-18T12:01:38.439Z,0.41
2017-01-18T12:02:38.433Z,0.58
2017-01-18T12:03:38.434Z,0.51
2017-01-18T12:04:38.410Z,0.62
2017-01-18T12:05:38.452Z,0.67
2017-01-18T12:06:38.433Z,0.62
2017-01-18T12:07:38.466Z,0.83
2017-01-18T12:08:38.456Z,0.61
2017-01-18T12:09:38.459Z,0.68
2017-01-18T12:10:38.465Z,0.78
2017-01-18T12:11:38.503Z,0.83
2017-01-18T12:12:38.435Z,0.83
2017-01-18T12:13:38.416Z,0.97
2017-01-18T12:14:38.450Z,1.01
2017-01-18T12:15:38.443Z,1.04
2017-01-18T12:16:38.439Z,0.94
2017-01-18T12:17:38.424Z,0.98
2017-01-18T12:18:38.443Z,1.06
2017-01-18T12:19:38.442Z,1.06
2017-01-18T12:20:38.420Z,1
2017-01-18T12:21:38.442Z,1.01
2017-01-18T12:22:38.444Z,1.08
2017-01-18T12:23:38.455Z,1.14
2017-01-18T12:24:39.167Z,1.04
2017-01-18T12:25:38.469Z,0.98
2017-01-18T12:26:38.431Z,1.03
2017-01-18T12:27:38.456Z,1.12
2017-01-18T12:28:38.442Z,1.08
2017-01-18T12:29:38.433Z,1.01
2017-01-18T12:30:38.429Z,1.08
2017-01-18T12:31:38.520Z,1.01
2017-01-18T12:32:38.423Z,1.07
2017-01-18T12:33:38.459Z,1.15
2017-01-18T12:34:38.450Z,1.21
2017-01-18T12:35:38.442Z,1.04
2017-01-18T12:36:38.469Z,1.18
2017-01-18T12:37:38.450Z,1.22
2017-01-18T12:38:38.445Z,1.04
2017-01-18T12:39:38.459Z,1.08
2017-01-18T12:40:38.437Z,1.08
2017-01-18T12:41:38.447Z,1.14
2017-01-18T12:42:38.446Z,1.18
2017-01-18T12:43:38.445Z,1.06
2017-01-18T12:44:38.447Z,1.01
2017-01-18T12:45:38.451Z,1.06
2017-01-18T12:46:38.435Z,1
2017-01-18T12:47:38.470Z,1.03
2017-01-18T12:48:38.446Z,1.08
2017-01-18T12:49:38.472Z,1.07
2017-01-18T12:50:38.506Z,1.15
2017-01-18T12:51:38.434Z,1.12
2017-01-18T12:52:38.443Z,1.19
2017-01-18T12:53:38.478Z,1.25
2017-01-18T12:54:38.461Z,1.32
2017-01-18T12:55:38.463Z,1.32
2017-01-18T12:56:38.481Z,1.34
2017-01-18T12:57:38.455Z,1.37
2017-01-18T12:58:38.449Z,1.47
2017-01-18T12:59:38.435Z,1.47
2017-01-18T13:00:38.461Z,1.44
2017-01-18T13:01:38.448Z,1.46